Wetterdaten: Woche 30.01.12 - 05.02.12 (KW5)
Datum Zeit Temperatur Luftfeuchte Luftdruck Niederschlag Windrichtung Sonnenschein Solar Wind
30.01.2012 00:00 -2,4 C 92 % 1022,8 hPa 0,0 l/m NO 0,00 h 0 W/m 5,9 km/h (2 Bft)
30.01.2012 01:00 -2,4 C 92 % 1022,7 hPa 0,0 l/m O-NO 0,00 h 0 W/m 4,7 km/h (1 Bft)
30.01.2012 02:00 -2,4 C 93 % 1022,7 hPa 0,0 l/m NO 0,00 h 0 W/m 7,2 km/h (2 Bft)
30.01.2012 03:00 -2,4 C 93 % 1022,6 hPa 0,0 l/m NO 0,00 h 0 W/m 5,2 km/h (1 Bft)
30.01.2012 04:00 -2,3 C 93 % 1022,6 hPa 0,0 l/m NO 0,00 h 0 W/m 3,9 km/h (1 Bft)
30.01.2012 05:00 -2,3 C 94 % 1022,9 hPa 0,0 l/m NO 0,00 h 0 W/m 3,1 km/h (1 Bft)
30.01.2012 06:00 -2,3 C 94 % 1023,2 hPa 0,0 l/m NO 0,00 h 0 W/m 4,8 km/h (1 Bft)
30.01.2012 07:00 -2,5 C 94 % 1023,7 hPa 0,0 l/m NO 0,00 h 0 W/m 5,6 km/h (1 Bft)
30.01.2012 08:00 -2,7 C 95 % 1024,0 hPa 0,0 l/m NO 0,00 h 7 W/m 4,8 km/h (1 Bft)
30.01.2012 09:00 -2,8 C 95 % 1023,8 hPa 0,0 l/m NO 0,00 h 21 W/m 4,9 km/h (1 Bft)
30.01.2012 10:00 -2,6 C 95 % 1023,9 hPa 0,0 l/m NO 0,00 h 32 W/m 3,2 km/h (1 Bft)
30.01.2012 11:00 -2,3 C 95 % 1024,1 hPa 0,0 l/m N 0,00 h 40 W/m 1,7 km/h (1 Bft)
30.01.2012 12:00 -2,1 C 95 % 1024,0 hPa 0,0 l/m N 0,00 h 33 W/m 0,5 km/h (0 Bft)
30.01.2012 13:00 -1,8 C 94 % 1023,6 hPa 0,0 l/m N 0,00 h 31 W/m 1,2 km/h (1 Bft)
30.01.2012 14:00 -1,7 C 94 % 1023,5 hPa 0,0 l/m NO 0,00 h 33 W/m 2,8 km/h (1 Bft)
30.01.2012 15:00 -1,6 C 93 % 1023,5 hPa 0,0 l/m NO 0,00 h 20 W/m 3,1 km/h (1 Bft)
30.01.2012 16:00 -1,6 C 92 % 1023,5 hPa 0,0 l/m NO 0,00 h 9 W/m 2,8 km/h (1 Bft)
30.01.2012 17:00 -1,6 C 92 % 1023,4 hPa 0,0 l/m N 0,00 h 0 W/m 3,1 km/h (1 Bft)
30.01.2012 18:00 -1,7 C 93 % 1023,3 hPa 0,0 l/m NO 0,00 h 0 W/m 3,6 km/h (1 Bft)
30.01.2012 19:00 -1,9 C 93 % 1022,9 hPa 0,0 l/m NO 0,00 h 0 W/m 2,8 km/h (1 Bft)
30.01.2012 20:00 -1,9 C 93 % 1022,7 hPa 0,0 l/m N 0,00 h 0 W/m 3,1 km/h (1 Bft)
30.01.2012 21:00 -2,0 C 93 % 1022,5 hPa 0,0 l/m N 0,00 h 0 W/m 2,3 km/h (1 Bft)
30.01.2012 22:00 -2,1 C 92 % 1022,2 hPa 0,0 l/m N 0,00 h 0 W/m 2,1 km/h (1 Bft)
30.01.2012 23:00 -2,2 C 93 % 1021,7 hPa 0,0 l/m NO 0,00 h 0 W/m 3,3 km/h (1 Bft)
31.01.2012 00:00 -2,3 C 93 % 1021,2 hPa 0,0 l/m N 0,00 h 0 W/m 2,5 km/h (1 Bft)
31.01.2012 01:00 -2,4 C 94 % 1020,8 hPa 0,0 l/m NO 0,00 h 0 W/m 2,5 km/h (1 Bft)
31.01.2012 02:00 -2,3 C 94 % 1020,1 hPa 0,4 l/m NO 0,00 h 0 W/m 4,4 km/h (1 Bft)
31.01.2012 03:00 -2,5 C 95 % 1019,4 hPa 0,2 l/m NO 0,00 h 0 W/m 5,6 km/h (1 Bft)
31.01.2012 04:00 -2,7 C 95 % 1018,9 hPa 0,2 l/m NO 0,00 h 0 W/m 5,9 km/h (2 Bft)
31.01.2012 05:00 -2,9 C 95 % 1018,5 hPa 0,0 l/m NO 0,00 h 0 W/m 6,3 km/h (2 Bft)
31.01.2012 06:00 -3,0 C 95 % 1018,0 hPa 0,0 l/m NO 0,00 h 0 W/m 6,0 km/h (2 Bft)
31.01.2012 07:00 -3,4 C 95 % 1017,5 hPa 0,0 l/m NO 0,00 h 0 W/m 9,3 km/h (2 Bft)
31.01.2012 08:00 -4,0 C 94 % 1017,4 hPa 0,0 l/m NO 0,00 h 22 W/m 7,5 km/h (2 Bft)
31.01.2012 09:00 -4,2 C 93 % 1017,3 hPa 0,0 l/m N-NO 0,25 h 99 W/m 9,1 km/h (2 Bft)
31.01.2012 10:00 -4,1 C 90 % 1017,4 hPa 0,0 l/m N-NO 0,00 h 130 W/m 9,9 km/h (2 Bft)
31.01.2012 11:00 -4,2 C 88 % 1017,4 hPa 0,0 l/m N-NO 0,58 h 248 W/m 14,0 km/h (3 Bft)
31.01.2012 12:00 -3,7 C 86 % 1017,3 hPa 0,0 l/m NO 0,75 h 322 W/m 13,7 km/h (3 Bft)
31.01.2012 13:00 -3,8 C 86 % 1017,3 hPa 0,0 l/m NO 0,00 h 138 W/m 13,2 km/h (3 Bft)
31.01.2012 14:00 -4,2 C 88 % 1017,4 hPa 0,0 l/m O-NO 0,00 h 105 W/m 13,8 km/h (3 Bft)
31.01.2012 15:00 -5,0 C 90 % 1017,9 hPa 0,2 l/m N-NO 0,00 h 45 W/m 14,0 km/h (3 Bft)
31.01.2012 16:00 -5,4 C 92 % 1018,4 hPa 0,2 l/m O-NO 0,00 h 18 W/m 13,0 km/h (3 Bft)
31.01.2012 17:00 -5,9 C 92 % 1018,8 hPa 0,0 l/m NO 0,00 h 5 W/m 12,9 km/h (3 Bft)
31.01.2012 18:00 -5,9 C 93 % 1019,2 hPa 0,2 l/m N-NO 0,00 h 0 W/m 9,5 km/h (2 Bft)
31.01.2012 19:00 -5,8 C 92 % 1019,7 hPa 0,0 l/m N-NO 0,00 h 0 W/m 8,0 km/h (2 Bft)
31.01.2012 20:00 -5,8 C 91 % 1020,1 hPa 0,2 l/m N-NO 0,00 h 0 W/m 6,1 km/h (2 Bft)
31.01.2012 21:00 -5,8 C 91 % 1020,4 hPa 0,0 l/m N-NO 0,00 h 0 W/m 5,7 km/h (1 Bft)
31.01.2012 22:00 -6,5 C 90 % 1020,6 hPa 0,0 l/m N-NO 0,00 h 0 W/m 4,8 km/h (1 Bft)
31.01.2012 23:00 -7,6 C 89 % 1020,6 hPa 0,0 l/m N 0,00 h 0 W/m 4,4 km/h (1 Bft)
01.02.2012 00:00 -7,9 C 91 % 1020,7 hPa 0,0 l/m N-NO 0,00 h 0 W/m 3,2 km/h (1 Bft)
01.02.2012 01:00 -7,4 C 91 % 1021,0 hPa 0,0 l/m N-NO 0,00 h 0 W/m 5,1 km/h (1 Bft)
01.02.2012 02:00 -8,2 C 88 % 1020,9 hPa 0,0 l/m N-NW 0,00 h 0 W/m 4,8 km/h (1 Bft)
01.02.2012 03:00 -9,5 C 88 % 1021,1 hPa 0,0 l/m N 0,00 h 0 W/m 5,2 km/h (1 Bft)
01.02.2012 04:00 -9,5 C 90 % 1021,2 hPa 0,0 l/m NO 0,00 h 0 W/m 5,3 km/h (1 Bft)
01.02.2012 05:00 -8,6 C 90 % 1021,1 hPa 0,0 l/m NO 0,00 h 0 W/m 11,0 km/h (2 Bft)
01.02.2012 06:00 -8,7 C 89 % 1021,1 hPa 0,0 l/m NO 0,00 h 0 W/m 11,4 km/h (2 Bft)
01.02.2012 07:00 -9,1 C 89 % 1021,3 hPa 0,0 l/m NO 0,00 h 5 W/m 11,4 km/h (2 Bft)
01.02.2012 08:00 -9,7 C 88 % 1021,5 hPa 0,0 l/m NO 0,00 h 26 W/m 11,8 km/h (2 Bft)
01.02.2012 09:00 -9,8 C 89 % 1021,5 hPa 0,0 l/m NO 0,58 h 121 W/m 14,6 km/h (3 Bft)
01.02.2012 10:00 -9,0 C 88 % 1021,3 hPa 0,0 l/m O-NO 0,92 h 256 W/m 13,0 km/h (3 Bft)
01.02.2012 11:00 -7,5 C 85 % 1021,4 hPa 0,0 l/m NO 0,75 h 287 W/m 14,9 km/h (3 Bft)
01.02.2012 12:00 -6,6 C 82 % 1021,0 hPa 0,0 l/m NO 0,25 h 203 W/m 15,0 km/h (3 Bft)
01.02.2012 13:00 -6,2 C 81 % 1020,5 hPa 0,0 l/m NO 0,00 h 181 W/m 19,2 km/h (3 Bft)
01.02.2012 14:00 -5,9 C 78 % 1020,6 hPa 0,0 l/m NO 0,08 h 133 W/m 19,7 km/h (3 Bft)
01.02.2012 15:00 -6,2 C 79 % 1020,6 hPa 0,0 l/m O-NO 0,00 h 81 W/m 17,3 km/h (3 Bft)
01.02.2012 16:00 -6,2 C 78 % 1020,6 hPa 0,0 l/m NO 0,00 h 29 W/m 18,1 km/h (3 Bft)
01.02.2012 17:00 -6,3 C 78 % 1020,4 hPa 0,0 l/m O-NO 0,00 h 7 W/m 18,4 km/h (3 Bft)
01.02.2012 18:00 -6,6 C 78 % 1020,5 hPa 0,0 l/m N-NO 0,00 h 0 W/m 16,0 km/h (3 Bft)
01.02.2012 19:00 -6,8 C 78 % 1020,3 hPa 0,0 l/m O-NO 0,00 h 0 W/m 15,4 km/h (3 Bft)
01.02.2012 20:00 -6,8 C 78 % 1020,0 hPa 0,0 l/m NO 0,00 h 0 W/m 18,9 km/h (3 Bft)
01.02.2012 21:00 -6,9 C 79 % 1020,2 hPa 0,0 l/m NO 0,00 h 0 W/m 21,8 km/h (4 Bft)
01.02.2012 22:00 -7,2 C 77 % 1020,2 hPa 0,0 l/m O-NO 0,00 h 0 W/m 22,0 km/h (4 Bft)
01.02.2012 23:00 -7,5 C 77 % 1020,0 hPa 0,0 l/m NO 0,00 h 0 W/m 22,9 km/h (4 Bft)
02.02.2012 00:00 -8,0 C 79 % 1020,0 hPa 0,0 l/m NO 0,00 h 0 W/m 22,9 km/h (4 Bft)
02.02.2012 01:00 -8,3 C 77 % 1020,0 hPa 0,0 l/m O-NO 0,00 h 0 W/m 22,8 km/h (4 Bft)
02.02.2012 02:00 -8,6 C 77 % 1020,2 hPa 0,0 l/m O-NO 0,00 h 0 W/m 20,2 km/h (4 Bft)
02.02.2012 03:00 -9,2 C 83 % 1020,3 hPa 0,0 l/m NO 0,00 h 0 W/m 21,3 km/h (4 Bft)
02.02.2012 04:00 -9,7 C 86 % 1020,5 hPa 0,0 l/m O-NO 0,00 h 0 W/m 22,4 km/h (4 Bft)
02.02.2012 05:00 -10,1 C 85 % 1020,6 hPa 0,0 l/m NO 0,00 h 0 W/m 25,2 km/h (4 Bft)
02.02.2012 06:00 -10,4 C 82 % 1020,8 hPa 0,0 l/m O-NO 0,00 h 0 W/m 24,4 km/h (4 Bft)
02.02.2012 07:00 -10,7 C 82 % 1021,2 hPa 0,0 l/m O-NO 0,00 h 0 W/m 22,6 km/h (4 Bft)
02.02.2012 08:00 -10,9 C 82 % 1021,7 hPa 0,0 l/m O-NO 0,00 h 19 W/m 22,9 km/h (4 Bft)
02.02.2012 09:00 -10,8 C 79 % 1022,1 hPa 0,0 l/m NO 0,00 h 48 W/m 21,8 km/h (4 Bft)
02.02.2012 10:00 -10,8 C 82 % 1022,4 hPa 0,0 l/m O-NO 0,00 h 95 W/m 23,3 km/h (4 Bft)
02.02.2012 11:00 -10,3 C 78 % 1022,9 hPa 0,0 l/m NO 0,00 h 148 W/m 22,0 km/h (4 Bft)
02.02.2012 12:00 -9,4 C 75 % 1022,9 hPa 0,0 l/m O-NO 0,00 h 181 W/m 21,8 km/h (4 Bft)
02.02.2012 13:00 -9,0 C 72 % 1023,0 hPa 0,0 l/m O-NO 0,00 h 163 W/m 24,0 km/h (4 Bft)
02.02.2012 14:00 -8,6 C 71 % 1023,3 hPa 0,0 l/m O-NO 0,00 h 121 W/m 22,1 km/h (4 Bft)
02.02.2012 15:00 -8,3 C 69 % 1023,5 hPa 0,0 l/m O-NO 0,00 h 79 W/m 23,3 km/h (4 Bft)
02.02.2012 16:00 -8,1 C 68 % 1023,8 hPa 0,0 l/m O-NO 0,00 h 33 W/m 21,0 km/h (4 Bft)
02.02.2012 17:00 -8,2 C 66 % 1024,1 hPa 0,0 l/m NO 0,00 h 8 W/m 19,3 km/h (3 Bft)
02.02.2012 18:00 -8,7 C 63 % 1024,5 hPa 0,0 l/m O-NO 0,00 h 0 W/m 21,4 km/h (4 Bft)
02.02.2012 19:00 -9,0 C 63 % 1024,7 hPa 0,0 l/m O-NO 0,00 h 0 W/m 21,4 km/h (4 Bft)
02.02.2012 20:00 -9,2 C 64 % 1025,0 hPa 0,0 l/m O-NO 0,00 h 0 W/m 22,0 km/h (4 Bft)
02.02.2012 21:00 -9,5 C 65 % 1025,4 hPa 0,0 l/m NO 0,00 h 0 W/m 23,4 km/h (4 Bft)
02.02.2012 22:00 -9,9 C 66 % 1025,9 hPa 0,0 l/m NO 0,00 h 0 W/m 21,3 km/h (4 Bft)
02.02.2012 23:00 -10,2 C 67 % 1026,2 hPa 0,0 l/m O-NO 0,00 h 0 W/m 18,8 km/h (3 Bft)
03.02.2012 00:00 -10,8 C 69 % 1026,5 hPa 0,0 l/m NO 0,00 h 0 W/m 17,8 km/h (3 Bft)
03.02.2012 01:00 -11,5 C 70 % 1026,9 hPa 0,0 l/m NO 0,00 h 0 W/m 15,8 km/h (3 Bft)
03.02.2012 02:00 -12,2 C 70 % 1027,2 hPa 0,0 l/m O-NO 0,00 h 0 W/m 17,3 km/h (3 Bft)
03.02.2012 03:00 -12,6 C 71 % 1027,5 hPa 0,0 l/m O-NO 0,00 h 0 W/m 14,9 km/h (3 Bft)
03.02.2012 04:00 -13,0 C 72 % 1027,5 hPa 0,0 l/m NO 0,00 h 0 W/m 13,7 km/h (3 Bft)
03.02.2012 05:00 -13,6 C 73 % 1027,6 hPa 0,0 l/m NO 0,00 h 0 W/m 9,5 km/h (2 Bft)
03.02.2012 06:00 -14,3 C 76 % 1027,9 hPa 0,0 l/m NO 0,00 h 0 W/m 11,0 km/h (2 Bft)
03.02.2012 07:00 -14,8 C 77 % 1028,5 hPa 0,0 l/m NO 0,00 h 7 W/m 12,8 km/h (3 Bft)
03.02.2012 08:00 -15,0 C 78 % 1029,2 hPa 0,0 l/m NO 0,08 h 26 W/m 12,4 km/h (3 Bft)
03.02.2012 09:00 -14,4 C 77 % 1029,8 hPa 0,0 l/m O-NO 0,67 h 133 W/m 15,4 km/h (3 Bft)
03.02.2012 10:00 -13,3 C 73 % 1030,1 hPa 0,0 l/m NO 0,92 h 278 W/m 15,3 km/h (3 Bft)
03.02.2012 11:00 -11,9 C 66 % 1030,3 hPa 0,0 l/m O-NO 1,00 h 395 W/m 15,2 km/h (3 Bft)
03.02.2012 12:00 -10,9 C 62 % 1030,2 hPa 0,0 l/m O-NO 1,00 h 435 W/m 16,0 km/h (3 Bft)
03.02.2012 13:00 -9,6 C 55 % 1030,0 hPa 0,0 l/m O-NO 1,00 h 425 W/m 16,0 km/h (3 Bft)
03.02.2012 14:00 -9,4 C 56 % 1030,4 hPa 0,0 l/m O-NO 1,00 h 353 W/m 20,9 km/h (4 Bft)
03.02.2012 15:00 -9,7 C 56 % 1030,9 hPa 0,0 l/m O-NO 1,00 h 214 W/m 20,6 km/h (4 Bft)
03.02.2012 16:00 -10,1 C 57 % 1031,5 hPa 0,0 l/m O-NO 0,58 h 68 W/m 15,7 km/h (3 Bft)
03.02.2012 17:00 -10,9 C 60 % 1032,3 hPa 0,0 l/m O-NO 0,08 h 10 W/m 13,0 km/h (3 Bft)
03.02.2012 18:00 -11,7 C 64 % 1033,1 hPa 0,0 l/m O-NO 0,00 h 0 W/m 5,3 km/h (1 Bft)
03.02.2012 19:00 -12,5 C 67 % 1033,2 hPa 0,0 l/m O-NO 0,00 h 0 W/m 4,3 km/h (1 Bft)
03.02.2012 20:00 -13,3 C 72 % 1033,3 hPa 0,0 l/m O-NO 0,00 h 0 W/m 4,0 km/h (1 Bft)
03.02.2012 21:00 -13,9 C 75 % 1033,7 hPa 0,0 l/m O-NO 0,00 h 0 W/m 3,6 km/h (1 Bft)
03.02.2012 22:00 -14,2 C 77 % 1033,7 hPa 0,0 l/m O-NO 0,00 h 0 W/m 5,2 km/h (1 Bft)
03.02.2012 23:00 -14,7 C 78 % 1033,7 hPa 0,0 l/m O-NO 0,00 h 0 W/m 4,1 km/h (1 Bft)
04.02.2012 00:00 -14,9 C 82 % 1033,7 hPa 0,0 l/m O-NO 0,00 h 0 W/m 4,1 km/h (1 Bft)
04.02.2012 01:00 -14,8 C 79 % 1033,8 hPa 0,0 l/m N 0,00 h 0 W/m 5,6 km/h (1 Bft)
04.02.2012 02:00 -14,8 C 78 % 1034,0 hPa 0,0 l/m N-NO 0,00 h 0 W/m 5,7 km/h (1 Bft)
04.02.2012 03:00 -14,8 C 76 % 1033,8 hPa 0,0 l/m NO 0,00 h 0 W/m 11,4 km/h (2 Bft)
04.02.2012 04:00 -15,1 C 77 % 1033,9 hPa 0,0 l/m N-NO 0,00 h 0 W/m 8,4 km/h (2 Bft)
04.02.2012 05:00 -15,5 C 78 % 1034,3 hPa 0,0 l/m N-NO 0,00 h 0 W/m 10,9 km/h (2 Bft)
04.02.2012 06:00 -15,5 C 78 % 1034,4 hPa 0,0 l/m N-NO 0,00 h 0 W/m 12,5 km/h (3 Bft)
04.02.2012 07:00 -15,5 C 77 % 1034,7 hPa 0,0 l/m NO 0,00 h 7 W/m 11,4 km/h (2 Bft)
04.02.2012 08:00 -15,5 C 77 % 1035,0 hPa 0,0 l/m NO 0,00 h 30 W/m 10,7 km/h (2 Bft)
04.02.2012 09:00 -14,6 C 76 % 1035,3 hPa 0,0 l/m NO 0,67 h 139 W/m 11,0 km/h (2 Bft)
04.02.2012 10:00 -13,1 C 72 % 1035,6 hPa 0,0 l/m O-NO 0,92 h 278 W/m 15,0 km/h (3 Bft)
04.02.2012 11:00 -11,7 C 69 % 1035,5 hPa 0,0 l/m NO 1,00 h 369 W/m 16,5 km/h (3 Bft)
04.02.2012 12:00 -10,3 C 64 % 1035,3 hPa 0,0 l/m NO 1,00 h 385 W/m 20,2 km/h (4 Bft)
04.02.2012 13:00 -9,5 C 63 % 1035,0 hPa 0,0 l/m NO 1,00 h 398 W/m 23,4 km/h (4 Bft)
04.02.2012 14:00 -8,8 C 59 % 1034,6 hPa 0,0 l/m O-NO 1,00 h 357 W/m 21,3 km/h (4 Bft)
04.02.2012 15:00 -9,2 C 58 % 1034,6 hPa 0,0 l/m NO 1,00 h 227 W/m 19,6 km/h (3 Bft)
04.02.2012 16:00 -9,9 C 64 % 1034,7 hPa 0,0 l/m O-NO 0,42 h 74 W/m 17,2 km/h (3 Bft)
04.02.2012 17:00 -10,7 C 68 % 1035,1 hPa 0,0 l/m O-NO 0,00 h 11 W/m 12,8 km/h (3 Bft)
04.02.2012 18:00 -11,5 C 71 % 1035,6 hPa 0,0 l/m NO 0,00 h 0 W/m 8,2 km/h (2 Bft)
04.02.2012 19:00 -12,2 C 75 % 1035,8 hPa 0,0 l/m NO 0,00 h 0 W/m 6,0 km/h (2 Bft)
04.02.2012 20:00 -13,0 C 77 % 1036,0 hPa 0,0 l/m N 0,00 h 0 W/m 1,6 km/h (1 Bft)
04.02.2012 21:00 -13,9 C 79 % 1035,9 hPa 0,0 l/m N 0,00 h 0 W/m 2,5 km/h (1 Bft)
04.02.2012 22:00 -14,3 C 82 % 1035,7 hPa 0,0 l/m N 0,00 h 0 W/m 1,9 km/h (1 Bft)
04.02.2012 23:00 -14,8 C 84 % 1035,5 hPa 0,0 l/m N 0,00 h 0 W/m 2,0 km/h (1 Bft)
05.02.2012 00:00 -15,4 C 85 % 1034,9 hPa 0,0 l/m N 0,00 h 0 W/m 0,9 km/h (0 Bft)
05.02.2012 01:00 -15,8 C 86 % 1034,1 hPa 0,0 l/m N 0,00 h 0 W/m 2,0 km/h (1 Bft)
05.02.2012 02:00 -15,9 C 87 % 1034,1 hPa 0,0 l/m NO 0,00 h 0 W/m 4,1 km/h (1 Bft)
05.02.2012 03:00 -15,9 C 88 % 1033,6 hPa 0,0 l/m N 0,00 h 0 W/m 3,5 km/h (1 Bft)
05.02.2012 04:00 -15,9 C 88 % 1033,4 hPa 0,0 l/m N 0,00 h 0 W/m 2,3 km/h (1 Bft)
05.02.2012 05:00 -16,4 C 87 % 1032,9 hPa 0,0 l/m NO 0,00 h 0 W/m 2,3 km/h (1 Bft)
05.02.2012 06:00 -17,0 C 86 % 1032,3 hPa 0,0 l/m N 0,00 h 0 W/m 1,9 km/h (1 Bft)
05.02.2012 07:00 -17,4 C 87 % 1032,2 hPa 0,0 l/m NO 0,00 h 6 W/m 3,6 km/h (1 Bft)
05.02.2012 08:00 -17,3 C 88 % 1032,3 hPa 0,0 l/m N-NW 0,00 h 28 W/m 5,1 km/h (1 Bft)
05.02.2012 09:00 -15,8 C 88 % 1032,4 hPa 0,0 l/m N-NO 0,42 h 120 W/m 8,7 km/h (2 Bft)
05.02.2012 10:00 -14,6 C 88 % 1032,3 hPa 0,0 l/m NO 0,50 h 209 W/m 11,8 km/h (2 Bft)
05.02.2012 11:00 -12,6 C 83 % 1032,0 hPa 0,0 l/m O 1,00 h 402 W/m 12,5 km/h (3 Bft)
05.02.2012 12:00 -10,5 C 72 % 1031,6 hPa 0,0 l/m O-NO 1,00 h 452 W/m 17,2 km/h (3 Bft)
05.02.2012 13:00 -9,2 C 65 % 1031,1 hPa 0,0 l/m O-NO 1,00 h 438 W/m 19,3 km/h (3 Bft)
05.02.2012 14:00 -8,4 C 60 % 1030,6 hPa 0,0 l/m O 1,00 h 369 W/m 19,3 km/h (3 Bft)
05.02.2012 15:00 -8,3 C 58 % 1030,6 hPa 0,0 l/m O 1,00 h 233 W/m 19,6 km/h (3 Bft)
05.02.2012 16:00 -8,7 C 60 % 1030,9 hPa 0,0 l/m O 0,67 h 82 W/m 16,8 km/h (3 Bft)
05.02.2012 17:00 -9,6 C 63 % 1031,2 hPa 0,0 l/m O-NO 0,08 h 11 W/m 10,9 km/h (2 Bft)
05.02.2012 18:00 -10,4 C 66 % 1031,6 hPa 0,0 l/m O-NO 0,00 h 0 W/m 8,3 km/h (2 Bft)
05.02.2012 19:00 -11,3 C 71 % 1031,9 hPa 0,0 l/m NO 0,00 h 0 W/m 7,2 km/h (2 Bft)
05.02.2012 20:00 -12,3 C 76 % 1032,2 hPa 0,0 l/m O-NO 0,00 h 0 W/m 8,7 km/h (2 Bft)
05.02.2012 21:00 -12,7 C 78 % 1032,2 hPa 0,0 l/m NO 0,00 h 0 W/m 6,5 km/h (2 Bft)
05.02.2012 22:00 -13,2 C 78 % 1032,2 hPa 0,0 l/m NO 0,00 h 0 W/m 3,6 km/h (1 Bft)
05.02.2012 23:00 -14,1 C 80 % 1032,1 hPa 0,0 l/m N-NO 0,00 h 0 W/m 4,4 km/h (1 Bft)
Min-Datum _ 05.02.12 03.02.12 31.01.12 - - - - 30.01.12
_ Min-Zeit 07:20 13:40 13:50 - - - - 11:45
Minimum _ -17,4 C 52 % 1017,0 hPa - - - - 0,0 km/h (0 Bft)
Max-Datum _ 30.01.12 30.01.12 04.02.12 31.01.12 - 31.01.12 31.01.12 02.02.12
_ Max-Zeit 15:50 07:50 20:55 02:30 - 09:45 12:25 00:10
Maximum _ -1,5 C 95 % 1036,1 hPa 0,4 l/m - 0,08 h 457 W/m 33,8 km/h
O-NO (5 Bft)
Durchschnitt _ -8,9 C 80 % 1026,1 hPa #1,6 l/m NO #25:10 h 145 W/m 11,4 km/h (2 Bft)